createdAt,value
2019-02-23T00:01:11.629Z,100.00
2019-02-23T00:03:42.039Z,100.00
2019-02-23T00:06:12.492Z,100.00
2019-02-23T00:08:43.110Z,100.00
2019-02-23T00:11:13.405Z,100.00
2019-02-23T00:13:43.670Z,100.00
2019-02-23T00:16:14.444Z,100.00
2019-02-23T00:18:44.806Z,100.00
2019-02-23T00:21:15.062Z,100.00
2019-02-23T00:23:45.552Z,100.00
2019-02-23T00:26:15.892Z,100.00
2019-02-23T00:28:46.137Z,100.00
2019-02-23T00:31:17.309Z,100.00
2019-02-23T00:33:47.497Z,100.00
2019-02-23T00:36:18.312Z,100.00
2019-02-23T00:38:48.911Z,100.00
2019-02-23T00:41:19.261Z,100.00
2019-02-23T00:43:50.205Z,100.00
2019-02-23T00:46:20.897Z,100.00
2019-02-23T00:48:51.770Z,100.00
2019-02-23T00:51:22.216Z,100.00
2019-02-23T00:53:52.519Z,100.00
2019-02-23T00:56:23.668Z,100.00
2019-02-23T00:58:54.196Z,100.00
2019-02-23T01:01:24.768Z,100.00
2019-02-23T01:03:54.989Z,100.00
2019-02-23T01:06:25.515Z,100.00
2019-02-23T01:08:56.088Z,100.00
2019-02-23T01:11:26.455Z,100.00
2019-02-23T01:13:56.830Z,100.00
2019-02-23T01:16:27.353Z,100.00
2019-02-23T01:18:57.737Z,100.00
2019-02-23T01:21:28.539Z,100.00
2019-02-23T01:23:58.994Z,100.00
2019-02-23T01:26:29.537Z,100.00
2019-02-23T01:28:59.800Z,100.00
2019-02-23T01:31:30.127Z,100.00
2019-02-23T01:34:00.616Z,100.00
2019-02-23T01:36:30.897Z,100.00
2019-02-23T01:39:01.373Z,100.00
2019-02-23T01:41:31.855Z,100.00
2019-02-23T01:44:02.285Z,100.00
2019-02-23T01:46:32.962Z,100.00
2019-02-23T01:49:03.263Z,100.00
2019-02-23T01:51:36.579Z,100.00
2019-02-23T01:54:06.900Z,100.00
2019-02-23T01:56:37.139Z,100.00
2019-02-23T01:59:07.641Z,100.00
2019-02-23T02:01:38.610Z,100.00
2019-02-23T02:04:08.816Z,100.00
2019-02-23T02:06:39.287Z,100.00
2019-02-23T02:09:09.887Z,100.00
2019-02-23T02:11:40.215Z,100.00
2019-02-23T02:14:10.814Z,100.00
2019-02-23T02:16:41.479Z,100.00
2019-02-23T02:19:11.826Z,100.00
2019-02-23T02:21:42.534Z,100.00
2019-02-23T02:24:13.037Z,100.00
2019-02-23T02:26:43.438Z,100.00
2019-02-23T02:29:13.687Z,100.00
2019-02-23T02:31:44.177Z,100.00
2019-02-23T02:34:18.463Z,100.00
2019-02-23T02:36:48.793Z,100.00
2019-02-23T02:39:19.078Z,100.00
2019-02-23T02:41:50.118Z,100.00
2019-02-23T02:44:20.378Z,100.00
2019-02-23T02:46:50.661Z,100.00
2019-02-23T02:49:21.283Z,100.00
2019-02-23T02:51:51.546Z,100.00
2019-02-23T02:54:21.841Z,100.00
2019-02-23T02:56:52.507Z,100.00
2019-02-23T02:59:22.825Z,100.00
2019-02-23T03:01:53.327Z,100.00
2019-02-23T03:04:23.576Z,100.00
2019-02-23T03:06:54.075Z,100.00
2019-02-23T03:09:24.348Z,100.00
2019-02-23T03:11:54.631Z,100.00
2019-02-23T03:14:24.979Z,100.00
2019-02-23T03:16:55.545Z,100.00
2019-02-23T03:19:25.858Z,100.00
2019-02-23T03:21:56.050Z,100.00
2019-02-23T03:24:26.276Z,100.00
2019-02-23T03:26:56.791Z,100.00
2019-02-23T03:29:27.028Z,100.00
2019-02-23T03:31:57.434Z,100.00
2019-02-23T03:34:27.698Z,100.00
2019-02-23T03:36:58.315Z,100.00
2019-02-23T03:39:28.653Z,100.00
2019-02-23T03:41:58.921Z,100.00
2019-02-23T03:44:29.371Z,100.00
2019-02-23T03:47:01.301Z,100.00
2019-02-23T03:49:31.536Z,100.00
2019-02-23T03:52:01.809Z,100.00
2019-02-23T03:54:32.087Z,100.00
2019-02-23T03:57:02.728Z,100.00
2019-02-23T03:59:33.088Z,100.00
2019-02-23T04:02:03.350Z,100.00
2019-02-23T04:04:33.569Z,100.00
2019-02-23T04:07:03.842Z,100.00
2019-02-23T04:09:34.109Z,100.00
2019-02-23T04:12:04.337Z,100.00
2019-02-23T04:14:35.040Z,100.00
2019-02-23T04:17:05.249Z,100.00
2019-02-23T04:19:35.671Z,100.00
2019-02-23T04:22:05.969Z,100.00
2019-02-23T04:24:36.415Z,100.00
2019-02-23T04:27:06.989Z,100.00
2019-02-23T04:29:37.617Z,100.00
2019-02-23T04:32:08.164Z,100.00
2019-02-23T04:34:38.383Z,100.00
2019-02-23T04:37:08.713Z,100.00
2019-02-23T04:39:39.036Z,100.00
2019-02-23T04:42:09.277Z,100.00
2019-02-23T04:44:39.497Z,100.00
2019-02-23T04:47:09.724Z,100.00
2019-02-23T04:49:40.004Z,100.00
2019-02-23T04:52:10.985Z,100.00
2019-02-23T04:54:41.222Z,100.00
2019-02-23T04:57:11.454Z,100.00
2019-02-23T04:59:41.945Z,100.00
2019-02-23T05:02:12.345Z,100.00
2019-02-23T05:04:42.650Z,100.00
2019-02-23T05:07:13.400Z,100.00
2019-02-23T05:09:45.038Z,100.00
2019-02-23T05:12:15.302Z,100.00
2019-02-23T05:14:45.739Z,100.00
2019-02-23T05:17:16.391Z,100.00
2019-02-23T05:19:46.592Z,100.00
2019-02-23T05:22:16.832Z,100.00
2019-02-23T05:24:47.957Z,100.00
2019-02-23T05:27:18.363Z,100.00
2019-02-23T05:29:48.642Z,100.00
2019-02-23T05:32:18.909Z,100.00
2019-02-23T05:34:49.266Z,100.00
2019-02-23T05:37:19.503Z,100.00
2019-02-23T05:39:50.010Z,100.00
2019-02-23T05:42:20.366Z,100.00
2019-02-23T05:44:50.522Z,100.00
2019-02-23T05:47:20.787Z,100.00
2019-02-23T05:49:51.414Z,100.00
2019-02-23T05:52:21.681Z,100.00
2019-02-23T05:54:53.368Z,100.00
2019-02-23T05:57:23.587Z,100.00
2019-02-23T05:59:54.220Z,100.00
2019-02-23T06:02:24.605Z,100.00
2019-02-23T06:04:55.302Z,100.00
2019-02-23T06:07:25.675Z,100.00
2019-02-23T06:09:56.001Z,100.00
2019-02-23T06:12:26.837Z,100.00
2019-02-23T06:14:57.156Z,100.00
2019-02-23T06:17:27.469Z,100.00
2019-02-23T06:19:57.711Z,100.00
2019-02-23T06:22:27.970Z,100.00
2019-02-23T06:24:58.414Z,100.00
2019-02-23T06:27:28.739Z,100.00
2019-02-23T06:29:59.023Z,100.00
2019-02-23T06:32:29.290Z,100.00
2019-02-23T06:34:59.718Z,100.00
2019-02-23T06:37:31.427Z,100.00
2019-02-23T06:40:04.854Z,100.00
2019-02-23T06:42:35.589Z,100.00
2019-02-23T06:45:06.335Z,100.00
2019-02-23T06:47:36.599Z,100.00
2019-02-23T06:50:08.340Z,100.00
2019-02-23T06:52:38.596Z,100.00
2019-02-23T06:55:08.876Z,100.00
2019-02-23T06:57:39.741Z,100.00
2019-02-23T07:00:12.519Z,100.00
2019-02-23T07:02:43.365Z,100.00
2019-02-23T07:05:15.580Z,100.00
2019-02-23T07:07:47.237Z,100.00
2019-02-23T07:10:17.971Z,100.00
2019-02-23T07:12:49.038Z,100.00
2019-02-23T07:15:21.283Z,100.00
2019-02-23T07:17:51.504Z,100.00
2019-02-23T07:20:22.288Z,100.00
2019-02-23T07:22:52.774Z,100.00
2019-02-23T07:25:23.249Z,100.00
2019-02-23T07:27:54.284Z,100.00
2019-02-23T07:30:24.546Z,100.00
2019-02-23T07:32:58.361Z,100.00
2019-02-23T07:35:29.525Z,100.00
2019-02-23T07:37:59.811Z,100.00
2019-02-23T07:40:30.799Z,100.00
2019-02-23T07:43:02.192Z,100.00
2019-02-23T07:45:32.705Z,100.00
2019-02-23T07:48:03.186Z,100.00
2019-02-23T07:50:34.043Z,100.00
2019-02-23T07:53:04.543Z,100.00
2019-02-23T07:55:34.772Z,100.00
2019-02-23T07:58:05.056Z,100.00
2019-02-23T08:00:35.291Z,100.00
2019-02-23T08:03:05.601Z,100.00
2019-02-23T08:05:35.836Z,100.00
2019-02-23T08:08:06.050Z,100.00
2019-02-23T08:10:36.374Z,100.00
2019-02-23T08:13:07.242Z,100.00
2019-02-23T08:15:39.137Z,100.00
2019-02-23T08:18:09.763Z,100.00
2019-02-23T08:20:40.661Z,100.00
2019-02-23T08:23:10.955Z,100.00
2019-02-23T08:25:41.627Z,100.00
2019-02-23T08:28:12.079Z,100.00
2019-02-23T08:30:42.797Z,100.00
2019-02-23T08:33:14.946Z,100.00
2019-02-23T08:35:49.138Z,100.00
2019-02-23T08:38:19.536Z,100.00
2019-02-23T08:40:49.965Z,100.00
2019-02-23T08:43:20.847Z,100.00
2019-02-23T08:45:51.480Z,100.00
2019-02-23T08:48:22.582Z,100.00
2019-02-23T08:50:52.855Z,100.00
2019-02-23T08:53:23.169Z,100.00
2019-02-23T08:55:53.402Z,100.00
2019-02-23T08:58:23.667Z,100.00
2019-02-23T09:00:54.700Z,100.00
2019-02-23T09:03:25.407Z,100.00
2019-02-23T09:05:55.913Z,100.00
2019-02-23T09:08:27.002Z,100.00
2019-02-23T09:10:57.305Z,100.00
2019-02-23T09:13:27.614Z,100.00
2019-02-23T09:15:59.387Z,100.00
2019-02-23T09:18:29.648Z,100.00
2019-02-23T09:21:00.137Z,100.00
2019-02-23T09:23:31.230Z,100.00
2019-02-23T09:26:01.887Z,100.00
2019-02-23T09:28:32.152Z,100.00
2019-02-23T09:31:03.588Z,100.00
2019-02-23T09:33:33.858Z,100.00
2019-02-23T09:36:04.072Z,100.00
2019-02-23T09:38:34.306Z,100.00
2019-02-23T09:41:04.536Z,100.00
2019-02-23T09:43:34.772Z,100.00
2019-02-23T09:46:05.148Z,100.00
2019-02-23T09:48:35.461Z,100.00
2019-02-23T09:51:06.075Z,100.00
2019-02-23T09:53:36.497Z,100.00
2019-02-23T09:56:06.783Z,100.00
2019-02-23T09:58:37.407Z,100.00
2019-02-23T10:01:07.698Z,100.00
2019-02-23T10:03:38.024Z,100.00
2019-02-23T10:06:08.917Z,100.00
2019-02-23T10:08:39.593Z,100.00
2019-02-23T10:11:09.814Z,100.00
2019-02-23T10:13:40.390Z,94.72
2019-02-23T10:16:10.688Z,92.62
2019-02-23T10:18:41.452Z,89.25
2019-02-23T10:21:11.988Z,86.44
2019-02-23T10:23:42.329Z,83.97
2019-02-23T10:26:12.583Z,83.70
2019-02-23T10:28:42.866Z,85.56
2019-02-23T10:31:13.236Z,87.70
2019-02-23T10:33:47.633Z,89.85
2019-02-23T10:36:15.909Z,93.03
2019-02-23T10:38:46.215Z,91.61
2019-02-23T10:41:16.575Z,91.94
2019-02-23T10:43:47.676Z,87.62
2019-02-23T10:46:18.043Z,90.45
2019-02-23T10:48:48.470Z,91.69
2019-02-23T10:51:18.779Z,89.77
2019-02-23T10:53:49.271Z,88.69
2019-02-23T10:56:19.776Z,89.07
2019-02-23T10:58:50.452Z,92.04
2019-02-23T11:01:20.726Z,90.47
2019-02-23T11:03:51.031Z,91.49
2019-02-23T11:06:22.347Z,89.90
2019-02-23T11:08:52.976Z,88.90
2019-02-23T11:11:23.383Z,87.54
2019-02-23T11:13:53.658Z,85.38
2019-02-23T11:16:23.951Z,84.56
2019-02-23T11:18:54.635Z,84.33
2019-02-23T11:21:25.050Z,85.70
2019-02-23T11:23:55.395Z,84.30
2019-02-23T11:26:26.033Z,81.82
2019-02-23T11:28:56.352Z,81.57
2019-02-23T11:31:26.958Z,82.44
2019-02-23T11:33:57.408Z,83.34
2019-02-23T11:36:27.697Z,83.13
2019-02-23T11:38:58.267Z,82.51
2019-02-23T11:41:28.498Z,80.81
2019-02-23T11:43:58.888Z,79.08
2019-02-23T11:46:29.353Z,77.47
2019-02-23T11:48:59.691Z,76.41
2019-02-23T11:51:30.994Z,76.26
2019-02-23T11:54:02.637Z,74.47
2019-02-23T11:56:32.876Z,67.86
2019-02-23T11:59:03.446Z,66.74
2019-02-23T12:01:34.594Z,66.87
2019-02-23T12:04:04.839Z,66.69
2019-02-23T12:06:35.191Z,66.89
2019-02-23T12:09:05.748Z,66.75
2019-02-23T12:11:36.258Z,68.05
2019-02-23T12:14:06.527Z,68.48
2019-02-23T12:16:37.962Z,68.44
2019-02-23T12:19:08.219Z,67.92
2019-02-23T12:21:38.780Z,68.38
2019-02-23T12:24:09.143Z,69.04
2019-02-23T12:26:39.979Z,69.18
2019-02-23T12:29:10.268Z,67.87
2019-02-23T12:31:40.873Z,67.09
2019-02-23T12:34:11.201Z,66.25
2019-02-23T12:36:44.527Z,65.53
2019-02-23T12:39:15.033Z,63.84
2019-02-23T12:41:45.679Z,64.99
2019-02-23T12:44:16.604Z,63.31
2019-02-23T12:46:47.359Z,65.61
2019-02-23T12:49:18.007Z,67.21
2019-02-23T12:51:48.644Z,67.85
2019-02-23T12:54:19.519Z,67.69
2019-02-23T12:56:50.112Z,66.79
2019-02-23T12:59:20.465Z,65.44
2019-02-23T13:01:51.783Z,65.60
2019-02-23T13:04:22.092Z,64.18
2019-02-23T13:06:53.103Z,63.69
2019-02-23T13:09:29.697Z,62.56
2019-02-23T13:12:30.344Z,61.55
2019-02-23T13:15:29.547Z,61.29
2019-02-23T13:18:46.679Z,63.36
2019-02-23T13:21:24.489Z,63.97
2019-02-23T13:24:12.162Z,64.72
2019-02-23T13:27:21.034Z,64.79
2019-02-23T13:30:30.861Z,63.94
2019-02-23T13:33:33.146Z,61.55
2019-02-23T13:37:01.822Z,63.55
2019-02-23T13:40:11.736Z,66.09
2019-02-23T13:43:19.306Z,66.02
2019-02-23T13:46:13.885Z,67.33
2019-02-23T13:49:13.781Z,66.83
2019-02-23T13:52:25.686Z,68.00
2019-02-23T13:55:35.753Z,67.84
2019-02-23T13:58:12.614Z,70.45
2019-02-23T14:00:58.833Z,72.48
2019-02-23T14:03:49.628Z,74.25
2019-02-23T14:06:40.316Z,74.59
2019-02-23T14:09:50.602Z,72.19
2019-02-23T14:12:38.244Z,73.55
2019-02-23T14:15:22.905Z,71.55
2019-02-23T14:18:07.863Z,70.90
2019-02-23T14:21:15.028Z,71.18
2019-02-23T14:24:29.321Z,70.61
2019-02-23T14:27:18.078Z,70.93
2019-02-23T14:30:13.745Z,69.53
2019-02-23T14:33:40.846Z,69.73
2019-02-23T14:36:51.186Z,68.61
2019-02-23T14:39:56.949Z,68.29
2019-02-23T14:43:26.596Z,67.97
2019-02-23T14:46:15.745Z,67.23
2019-02-23T14:49:57.562Z,67.37
2019-02-23T14:53:17.211Z,68.57
2019-02-23T14:56:31.475Z,69.98
2019-02-23T14:59:44.810Z,70.70
2019-02-23T15:03:05.202Z,71.42
2019-02-23T15:06:07.601Z,72.67
2019-02-23T15:09:33.948Z,72.18
2019-02-23T15:12:15.408Z,72.04
2019-02-23T15:15:09.373Z,71.36
2019-02-23T15:18:17.006Z,69.18
2019-02-23T15:21:30.334Z,69.02
2019-02-23T15:24:49.103Z,70.22
2019-02-23T15:27:38.765Z,70.55
2019-02-23T15:30:33.077Z,70.84
2019-02-23T15:33:56.603Z,70.31
2019-02-23T15:37:00.543Z,67.89
2019-02-23T15:40:13.962Z,70.79
2019-02-23T15:43:28.924Z,72.21
2019-02-23T15:46:30.396Z,75.39
2019-02-23T15:49:33.119Z,78.08
2019-02-23T15:52:07.556Z,77.97
2019-02-23T15:54:39.220Z,77.60
2019-02-23T15:57:09.589Z,77.69
2019-02-23T15:59:40.071Z,79.43
2019-02-23T16:02:10.683Z,80.95
2019-02-23T16:04:40.908Z,79.83
2019-02-23T16:07:11.235Z,79.87
2019-02-23T16:09:41.670Z,79.90
2019-02-23T16:12:11.905Z,80.50
2019-02-23T16:14:42.388Z,79.82
2019-02-23T16:17:12.653Z,81.38
2019-02-23T16:19:43.375Z,81.10
2019-02-23T16:22:14.122Z,81.59
2019-02-23T16:24:45.393Z,82.72
2019-02-23T16:27:15.640Z,83.39
2019-02-23T16:29:46.056Z,84.20
2019-02-23T16:32:16.478Z,84.00
2019-02-23T16:34:46.752Z,85.16
2019-02-23T16:37:17.325Z,85.01
2019-02-23T16:39:48.528Z,84.98
2019-02-23T16:42:21.435Z,85.77
2019-02-23T16:44:51.847Z,86.09
2019-02-23T16:47:23.830Z,86.30
2019-02-23T16:49:56.082Z,86.35
2019-02-23T16:52:27.046Z,87.46
2019-02-23T16:54:59.564Z,87.47
2019-02-23T16:57:30.417Z,87.32
2019-02-23T17:00:01.117Z,87.27
2019-02-23T17:02:31.702Z,88.76
2019-02-23T17:05:09.245Z,87.50
2019-02-23T17:07:39.593Z,88.01
2019-02-23T17:10:13.146Z,88.31
2019-02-23T17:12:46.214Z,88.85
2019-02-23T17:15:20.826Z,88.52
2019-02-23T17:17:53.344Z,87.62
2019-02-23T17:20:25.680Z,86.91
2019-02-23T17:22:56.570Z,86.45
2019-02-23T17:25:27.386Z,88.25
2019-02-23T17:28:03.554Z,88.37
2019-02-23T17:30:35.158Z,88.83
2019-02-23T17:33:05.947Z,89.20
2019-02-23T17:35:40.885Z,90.43
2019-02-23T17:38:16.892Z,91.15
2019-02-23T17:40:46.555Z,91.04
2019-02-23T17:43:19.804Z,91.29
2019-02-23T17:45:51.577Z,91.40
2019-02-23T17:48:25.445Z,91.54
2019-02-23T17:51:02.241Z,92.67
2019-02-23T17:53:40.473Z,92.59
2019-02-23T17:56:16.799Z,92.22
2019-02-23T17:58:56.803Z,93.31
2019-02-23T18:01:26.811Z,93.65
2019-02-23T18:03:57.700Z,93.95
2019-02-23T18:06:31.050Z,94.29
2019-02-23T18:09:01.518Z,95.76
2019-02-23T18:11:31.902Z,95.59
2019-02-23T18:14:02.731Z,96.19
2019-02-23T18:16:37.436Z,96.34
2019-02-23T18:19:10.741Z,96.38
2019-02-23T18:21:41.766Z,96.15
2019-02-23T18:24:13.701Z,96.82
2019-02-23T18:26:44.957Z,97.32
2019-02-23T18:29:15.787Z,97.71
2019-02-23T18:31:46.416Z,97.32
2019-02-23T18:34:19.556Z,97.29
2019-02-23T18:36:53.631Z,97.47
2019-02-23T18:39:26.468Z,98.00
2019-02-23T18:41:56.754Z,98.52
2019-02-23T18:44:31.279Z,98.47
2019-02-23T18:47:01.655Z,98.75
2019-02-23T18:49:32.725Z,98.61
2019-02-23T18:52:03.596Z,99.56
2019-02-23T18:54:34.666Z,99.54
2019-02-23T18:57:05.323Z,99.99
2019-02-23T18:59:36.728Z,100.00
2019-02-23T19:02:07.162Z,100.00
2019-02-23T19:04:38.530Z,100.00
2019-02-23T19:07:09.264Z,100.00
2019-02-23T19:09:40.858Z,100.00
2019-02-23T19:12:11.448Z,100.00
2019-02-23T19:14:44.348Z,99.84
2019-02-23T19:17:16.840Z,100.00
2019-02-23T19:19:47.100Z,100.00
2019-02-23T19:22:18.254Z,100.00
2019-02-23T19:24:49.682Z,100.00
2019-02-23T19:27:20.301Z,100.00
2019-02-23T19:29:50.828Z,100.00
2019-02-23T19:32:25.059Z,100.00
2019-02-23T19:34:56.049Z,100.00
2019-02-23T19:37:26.378Z,100.00
2019-02-23T19:39:56.757Z,100.00
2019-02-23T19:42:27.223Z,100.00
2019-02-23T19:44:58.020Z,100.00
2019-02-23T19:47:31.334Z,99.95
2019-02-23T19:50:06.305Z,100.00
2019-02-23T19:52:36.596Z,100.00
2019-02-23T19:55:08.942Z,100.00
2019-02-23T19:57:41.266Z,100.00
2019-02-23T20:00:12.375Z,100.00
2019-02-23T20:02:42.704Z,100.00
2019-02-23T20:05:13.021Z,100.00
2019-02-23T20:07:43.346Z,100.00
2019-02-23T20:10:14.058Z,100.00
2019-02-23T20:12:44.472Z,100.00
2019-02-23T20:15:15.053Z,100.00
2019-02-23T20:17:45.819Z,100.00
2019-02-23T20:20:16.175Z,100.00
2019-02-23T20:22:46.562Z,100.00
2019-02-23T20:25:17.839Z,99.67
2019-02-23T20:27:48.904Z,99.73
2019-02-23T20:30:19.537Z,99.38
2019-02-23T20:32:50.780Z,99.24
2019-02-23T20:35:21.687Z,98.57
2019-02-23T20:37:52.038Z,98.15
2019-02-23T20:40:22.358Z,97.34
2019-02-23T20:42:52.618Z,97.47
2019-02-23T20:45:24.430Z,96.96
2019-02-23T20:47:55.150Z,97.58
2019-02-23T20:50:25.591Z,97.12
2019-02-23T20:52:56.045Z,96.20
2019-02-23T20:55:27.874Z,95.28
2019-02-23T20:57:58.221Z,94.79
2019-02-23T21:00:28.956Z,94.99
2019-02-23T21:02:59.299Z,94.79
2019-02-23T21:05:32.585Z,94.25
2019-02-23T21:08:03.189Z,93.67
2019-02-23T21:10:33.620Z,93.27
2019-02-23T21:13:03.960Z,91.93
2019-02-23T21:15:34.721Z,91.82
2019-02-23T21:18:05.535Z,90.33
2019-02-23T21:20:35.872Z,89.88
2019-02-23T21:23:06.646Z,89.40
2019-02-23T21:25:37.484Z,89.05
2019-02-23T21:28:08.448Z,88.94
2019-02-23T21:30:38.893Z,88.19
2019-02-23T21:33:09.504Z,87.40
2019-02-23T21:35:39.961Z,87.06
2019-02-23T21:38:13.410Z,85.70
2019-02-23T21:40:43.878Z,85.69
2019-02-23T21:43:14.093Z,85.62
2019-02-23T21:45:45.410Z,85.47
2019-02-23T21:48:15.754Z,85.24
2019-02-23T21:50:46.195Z,84.69
2019-02-23T21:53:17.524Z,84.81
2019-02-23T21:55:48.029Z,85.10
2019-02-23T21:58:18.775Z,84.32
2019-02-23T22:00:49.009Z,85.11
2019-02-23T22:03:20.846Z,83.85
2019-02-23T22:05:51.278Z,84.81
2019-02-23T22:08:21.807Z,85.33
2019-02-23T22:10:52.188Z,85.58
2019-02-23T22:13:23.159Z,85.69
2019-02-23T22:15:53.586Z,84.22
2019-02-23T22:18:25.739Z,84.33
2019-02-23T22:20:56.200Z,84.31
2019-02-23T22:23:29.536Z,85.05
2019-02-23T22:26:00.343Z,85.66
2019-02-23T22:28:31.046Z,85.35
2019-02-23T22:31:01.371Z,85.31
2019-02-23T22:33:32.159Z,86.14
2019-02-23T22:36:02.607Z,86.66
2019-02-23T22:38:33.278Z,86.03
2019-02-23T22:41:03.668Z,86.57
2019-02-23T22:43:34.138Z,86.03
2019-02-23T22:46:04.511Z,85.84
2019-02-23T22:48:38.065Z,85.01
2019-02-23T22:51:09.461Z,85.38
2019-02-23T22:53:40.323Z,86.75
2019-02-23T22:56:10.606Z,86.83
2019-02-23T22:58:44.525Z,86.86
2019-02-23T23:01:15.139Z,87.44
2019-02-23T23:03:45.394Z,88.51
2019-02-23T23:06:15.690Z,87.99
2019-02-23T23:08:46.335Z,87.94
2019-02-23T23:11:16.616Z,88.47
2019-02-23T23:13:47.904Z,88.53
2019-02-23T23:16:18.279Z,88.78
2019-02-23T23:18:49.164Z,90.71
2019-02-23T23:21:19.442Z,90.62
2019-02-23T23:23:52.598Z,89.86
2019-02-23T23:26:22.935Z,90.34
2019-02-23T23:28:55.533Z,89.69
2019-02-23T23:31:25.920Z,89.87
2019-02-23T23:33:56.619Z,90.32
2019-02-23T23:36:27.438Z,90.45
2019-02-23T23:38:57.964Z,90.11
2019-02-23T23:41:28.722Z,90.21
2019-02-23T23:43:59.209Z,90.04
2019-02-23T23:46:29.612Z,90.09
2019-02-23T23:49:00.255Z,90.29
2019-02-23T23:51:31.011Z,90.68
2019-02-23T23:54:01.529Z,91.32
2019-02-23T23:56:31.861Z,90.85
2019-02-23T23:59:02.323Z,91.37
